Time;durP1;ratioP1;P1;durP2;ratioP2;P2;SDS_P1;SDS_P2;PMS_P1;PMS_P2;Temp;Humidity;BMP_temperature;BMP_pressure;BME280_temperature;BME280_humidity;BME280_pressure;Samples;Min_cycle;Max_cycle;Signal;HPM_P1;HPM_P2
2022/08/13 00:01:44;;;;;;;14.98;8.95;;;;;;;21.14;73.33;100615.49;1709870;84;21274;-58
2022/08/13 00:04:56;;;;;;;12.85;8.70;;;;;;;21.13;73.35;100611.89;1709717;84;21620;-56
2022/08/13 00:08:04;;;;;;;18.63;9.60;;;;;;;21.16;73.41;100604.98;1709563;84;21180;-56
2022/08/13 00:12:56;;;;;;;11.05;8.48;;;;;;;21.16;73.44;100596.09;1709704;84;21241;-55
2022/08/13 00:14:25;;;;;;;12.85;9.10;;;;;;;21.17;73.48;100599.17;1709659;84;21193;-56
2022/08/13 00:17:33;;;;;;;14.75;9.08;;;;;;;21.17;73.51;100599.17;1709659;84;21206;-56
2022/08/13 00:20:49;;;;;;;12.13;9.45;;;;;;;21.18;73.54;100596.70;1709102;84;21234;-55
2022/08/13 00:23:57;;;;;;;17.15;9.65;;;;;;;21.16;73.55;100590.52;1709917;84;21193;-55
2022/08/13 00:27:04;;;;;;;13.65;9.98;;;;;;;21.16;73.59;100587.73;1708710;84;21245;-56
2022/08/13 00:30:15;;;;;;;12.85;9.63;;;;;;;21.14;73.59;100583.47;1709971;84;21256;-56
2022/08/13 00:33:27;;;;;;;17.82;9.80;;;;;;;21.09;73.55;100579.20;1709857;84;21198;-55
2022/08/13 00:36:36;;;;;;;20.57;11.12;;;;;;;21.05;73.61;100576.56;1709509;84;21229;-56
2022/08/13 00:39:43;;;;;;;14.93;10.18;;;;;;;21.01;73.66;100573.97;1709823;84;21253;-55
2022/08/13 00:42:53;;;;;;;16.82;9.60;;;;;;;20.97;73.68;100562.46;1709257;84;21221;-56
2022/08/13 00:45:59;;;;;;;15.85;10.45;;;;;;;20.96;73.71;100566.34;1709991;84;21277;-56
2022/08/13 00:49:06;;;;;;;15.80;9.98;;;;;;;20.94;73.75;100557.34;1709830;84;21210;-57
2022/08/13 00:52:26;;;;;;;19.85;10.95;;;;;;;20.92;73.79;100560.04;1679811;85;21215;-55
2022/08/13 00:55:32;;;;;;;13.90;9.43;;;;;;;20.89;73.81;100557.73;1651312;85;21234;-57
2022/08/13 00:58:37;;;;;;;18.57;11.08;;;;;;;20.82;73.79;100555.62;1646555;87;21219;-58
2022/08/13 01:01:46;;;;;;;17.10;10.20;;;;;;;20.77;73.86;100557.73;1646604;87;21235;-57
2022/08/13 01:04:53;;;;;;;13.98;9.80;;;;;;;20.74;73.91;100556.25;1639745;87;21244;-57
2022/08/13 01:08:02;;;;;;;17.12;10.45;;;;;;;20.71;73.95;100560.91;1656198;86;21227;-56
2022/08/13 01:11:13;;;;;;;12.60;9.98;;;;;;;20.66;73.96;100556.59;1656245;85;21239;-57
2022/08/13 01:14:20;;;;;;;13.32;10.18;;;;;;;20.64;74.01;100560.14;1656334;85;21251;-56
2022/08/13 01:17:27;;;;;;;13.72;9.85;;;;;;;20.62;74.11;100558.70;1656230;86;21219;-57
2022/08/13 01:20:36;;;;;;;14.20;9.60;;;;;;;20.61;74.11;100555.62;1656189;85;21306;-56
2022/08/13 01:23:45;;;;;;;14.00;9.98;;;;;;;20.56;74.12;100555.47;1656242;86;21242;-56
2022/08/13 01:26:54;;;;;;;15.25;9.93;;;;;;;20.53;74.20;100549.00;1656317;86;21207;-56
2022/08/13 01:30:03;;;;;;;16.55;10.70;;;;;;;20.49;74.26;100544.97;1635303;85;21743;-56
2022/08/13 01:33:11;;;;;;;18.98;10.65;;;;;;;20.47;74.34;100552.73;1656277;86;21638;-57
2022/08/13 01:36:18;;;;;;;15.18;10.15;;;;;;;20.46;74.43;100546.84;1634975;86;21298;-57
2022/08/13 01:39:27;;;;;;;13.60;10.13;;;;;;;20.43;74.48;100550.95;1648054;86;21269;-56
2022/08/13 01:42:36;;;;;;;15.20;9.73;;;;;;;20.45;74.56;100546.55;1639709;87;21241;-57
2022/08/13 01:45:45;;;;;;;14.65;9.90;;;;;;;20.44;74.58;100545.69;1656117;85;21294;-56
2022/08/13 01:52:02;;;;;;;;;;;;;;;20.43;74.69;100555.13;1661062;85;21330;-57
2022/08/13 01:55:12;;;;;;;13.98;9.05;;;;;;;20.45;74.78;100557.67;1640607;86;20529;-56
2022/08/13 01:58:23;;;;;;;12.78;9.13;;;;;;;20.44;74.86;100553.17;1660952;86;21211;-58
2022/08/13 02:01:31;;;;;;;14.63;9.40;;;;;;;20.44;74.88;100556.81;1661520;85;21222;-57
2022/08/13 02:04:41;;;;;;;13.83;9.63;;;;;;;20.45;74.89;100568.27;1661549;85;21633;-56
2022/08/13 02:07:50;;;;;;;15.70;9.93;;;;;;;20.45;74.90;100566.88;1661638;86;21286;-58
2022/08/13 02:11:01;;;;;;;18.37;9.70;;;;;;;20.45;74.92;100562.70;1661672;85;21403;-58
2022/08/13 02:14:08;;;;;;;14.18;9.25;;;;;;;20.48;74.97;100572.50;1661616;86;21199;-57
2022/08/13 02:17:25;;;;;;;16.25;9.05;;;;;;;20.51;75.04;100569.23;1661562;86;21250;-56
2022/08/13 02:20:35;;;;;;;15.32;9.28;;;;;;;20.51;75.04;100558.97;1660900;85;21345;-57
2022/08/13 02:23:41;;;;;;;15.23;9.33;;;;;;;20.52;75.00;100559.80;1640382;86;21385;-56
2022/08/13 02:26:50;;;;;;;16.48;10.00;;;;;;;20.53;75.04;100556.78;1660818;86;21215;-57
2022/08/13 02:29:59;;;;;;;16.90;10.15;;;;;;;20.53;75.02;100553.17;1661528;85;21238;-56
2022/08/13 02:33:05;;;;;;;14.70;10.40;;;;;;;20.52;75.04;100552.84;1661583;86;21187;-58
2022/08/13 02:36:15;;;;;;;15.90;10.43;;;;;;;20.52;75.03;100553.70;1661556;85;21226;-57
2022/08/13 02:39:23;;;;;;;13.32;9.48;;;;;;;20.52;75.09;100561.19;1661517;85;21254;-57
2022/08/13 02:42:32;;;;;;;19.57;9.63;;;;;;;20.52;75.09;100543.11;1661106;86;21259;-56
2022/08/13 02:45:39;;;;;;;17.02;9.55;;;;;;;20.50;75.13;100562.81;1661488;85;21294;-57
2022/08/13 02:48:46;;;;;;;16.37;10.28;;;;;;;20.50;75.16;100555.03;1658755;86;21216;-59
2022/08/13 02:51:54;;;;;;;16.42;10.13;;;;;;;20.48;75.15;100560.84;1634197;88;21580;-59
2022/08/13 02:55:01;;;;;;;19.75;11.03;;;;;;;20.50;75.28;100559.20;1634461;87;21595;-54
2022/08/13 02:58:09;;;;;;;18.95;10.75;;;;;;;20.53;75.31;100555.95;1634407;87;21240;-56
2022/08/13 03:01:14;;;;;;;18.50;10.63;;;;;;;20.56;75.33;100549.91;1634524;87;21307;-56
2022/08/13 03:04:22;;;;;;;15.70;9.90;;;;;;;20.56;75.30;100551.30;1634607;87;21283;-56
2022/08/13 03:07:30;;;;;;;15.10;10.53;;;;;;;20.56;75.31;100550.77;1634345;87;21263;-57
2022/08/13 03:10:38;;;;;;;17.82;9.65;;;;;;;20.57;75.31;100551.59;1606873;89;21268;-56
2022/08/13 03:13:46;;;;;;;13.93;10.25;;;;;;;20.56;75.30;100545.73;1634508;87;21244;-57
2022/08/13 03:16:54;;;;;;;18.62;9.63;;;;;;;20.52;75.23;100552.31;1624579;87;21215;-56
2022/08/13 03:20:00;;;;;;;14.30;10.65;;;;;;;20.53;75.34;100553.17;1632694;87;21306;-55
2022/08/13 03:23:08;;;;;;;15.63;10.45;;;;;;;20.52;75.36;100546.75;1672850;86;21311;-57
2022/08/13 03:26:17;;;;;;;16.00;11.63;;;;;;;20.51;75.29;100546.45;1672695;86;21240;-58
2022/08/13 03:29:23;;;;;;;17.10;11.60;;;;;;;20.49;75.33;100547.75;1639286;86;21216;-57
2022/08/13 03:32:30;;;;;;;17.40;10.28;;;;;;;20.50;75.43;100545.30;1639565;87;21273;-56
2022/08/13 03:35:37;;;;;;;16.50;11.08;;;;;;;20.51;75.46;100541.42;1650180;86;21244;-56
2022/08/13 03:38:43;;;;;;;15.05;11.55;;;;;;;20.53;75.49;100543.44;1650888;87;21213;-57
2022/08/13 03:41:51;;;;;;;17.82;11.05;;;;;;;20.52;75.53;100531.98;1650687;87;21304;-57
2022/08/13 03:44:59;;;;;;;20.65;11.65;;;;;;;20.54;75.62;100531.20;1652759;86;21529;-56
2022/08/13 03:48:07;;;;;;;18.37;12.00;;;;;;;20.56;75.63;100535.47;1652960;87;21208;-58
2022/08/13 03:51:16;;;;;;;19.45;12.18;;;;;;;20.58;75.62;100535.23;1650813;86;21248;-58
2022/08/13 03:54:26;;;;;;;16.00;11.75;;;;;;;20.58;75.59;100538.84;1651777;85;21280;-55
2022/08/13 03:57:34;;;;;;;16.97;11.45;;;;;;;20.58;75.58;100538.84;1652445;87;21217;-58
2022/08/13 04:00:47;;;;;;;18.25;12.13;;;;;;;20.55;75.60;100539.31;1649481;86;21237;-57
2022/08/13 04:03:54;;;;;;;16.17;12.03;;;;;;;20.57;75.73;100541.86;1650238;87;21225;-58
2022/08/13 04:07:00;;;;;;;17.65;11.25;;;;;;;20.65;75.94;100542.91;1652696;87;21244;-58
2022/08/13 04:10:08;;;;;;;17.27;11.90;;;;;;;20.75;76.05;100538.48;1624876;87;21235;-55
2022/08/13 04:13:20;;;;;;;17.27;11.68;;;;;;;20.85;76.10;100538.44;1649284;86;21239;-57
2022/08/13 04:16:32;;;;;;;16.90;11.97;;;;;;;20.96;76.16;100529.27;1636658;85;21225;-55
2022/08/13 04:19:40;;;;;;;17.65;12.55;;;;;;;21.10;76.17;100529.38;1648751;85;21393;-56
2022/08/13 04:22:48;;;;;;;16.32;12.35;;;;;;;21.22;76.21;100521.33;1644857;86;21219;-58
2022/08/13 04:25:55;;;;;;;15.08;11.85;;;;;;;21.33;76.18;100529.38;1662590;86;21271;-58
2022/08/13 04:29:04;;;;;;;16.00;12.33;;;;;;;21.46;76.25;100532.78;1636241;87;21333;-55
2022/08/13 04:32:13;;;;;;;17.98;12.35;;;;;;;21.60;76.28;100530.57;1623860;87;21853;-57
2022/08/13 04:35:22;;;;;;;17.67;11.88;;;;;;;21.71;76.21;100529.17;1629016;87;21216;-56
2022/08/13 04:38:30;;;;;;;19.02;13.48;;;;;;;21.84;76.27;100519.19;1624708;87;21270;-58
2022/08/13 04:41:37;;;;;;;15.03;12.20;;;;;;;21.96;76.19;100510.23;1636379;87;21334;-57
2022/08/13 04:44:45;;;;;;;17.00;12.00;;;;;;;22.05;76.10;100513.50;1641789;87;21729;-57
2022/08/13 04:47:54;;;;;;;16.45;11.60;;;;;;;22.15;76.12;100520.69;1656613;86;21231;-55
2022/08/13 04:51:02;;;;;;;19.40;12.35;;;;;;;22.27;76.10;100517.83;1656517;86;21638;-57
2022/08/13 04:54:08;;;;;;;14.75;11.35;;;;;;;22.36;76.03;100508.00;1656465;86;21327;-57
2022/08/13 04:57:14;;;;;;;16.25;12.30;;;;;;;22.46;75.99;100508.16;1641900;87;21275;-57
2022/08/13 05:00:24;;;;;;;16.75;12.10;;;;;;;22.54;75.89;100505.86;1668485;86;21244;-57
2022/08/13 05:03:30;;;;;;;17.02;11.95;;;;;;;22.63;75.85;100504.34;1641124;86;21254;-57
2022/08/13 05:06:38;;;;;;;17.67;11.53;;;;;;;22.75;75.86;100514.91;1668390;86;21197;-54
2022/08/13 05:09:47;;;;;;;18.45;11.80;;;;;;;22.80;75.70;100502.98;1649350;85;21247;-58
2022/08/13 05:12:54;;;;;;;15.43;11.30;;;;;;;22.91;75.79;100508.47;1685690;84;21227;-57
2022/08/13 05:16:06;;;;;;;18.32;11.83;;;;;;;23.06;75.84;100500.91;1686877;84;21235;-56
2022/08/13 05:19:12;;;;;;;18.35;11.53;;;;;;;23.21;75.86;100505.36;1686846;85;21258;-56
2022/08/13 05:22:23;;;;;;;15.95;11.53;;;;;;;23.31;75.75;100504.13;1686796;85;21787;-56
2022/08/13 05:25:31;;;;;;;17.02;12.28;;;;;;;23.42;75.75;100505.44;1649855;85;21252;-57
2022/08/13 05:28:38;;;;;;;17.75;11.78;;;;;;;23.55;75.71;100494.44;1655287;86;21256;-57
2022/08/13 05:31:46;;;;;;;14.35;11.30;;;;;;;23.69;75.64;100498.55;1649434;86;21256;-57
2022/08/13 05:34:54;;;;;;;16.17;11.63;;;;;;;23.81;75.58;100491.45;1648704;85;21753;-58
2022/08/13 05:38:02;;;;;;;15.15;11.78;;;;;;;23.95;75.58;100488.55;1655208;86;21222;-57
2022/08/13 05:41:12;;;;;;;17.60;12.07;;;;;;;24.09;75.52;100489.33;1648066;85;21232;-56
2022/08/13 05:44:21;;;;;;;15.43;11.60;;;;;;;24.17;75.40;100484.67;1635265;85;21259;-57
2022/08/13 05:47:28;;;;;;;15.53;11.45;;;;;;;24.27;75.35;100484.80;1648793;86;21247;-57
2022/08/13 05:50:35;;;;;;;13.98;11.97;;;;;;;24.33;75.18;100478.69;1651014;86;21429;-57
2022/08/13 05:53:44;;;;;;;14.33;10.80;;;;;;;24.39;75.09;100486.88;1646920;87;21252;-57
2022/08/13 05:56:52;;;;;;;15.88;11.93;;;;;;;24.50;75.02;100486.42;1635249;86;21253;-57
2022/08/13 06:03:31;;;;;;;15.93;12.13;;;;;;;24.71;74.86;100482.21;1649977;86;21216;-59
2022/08/13 06:06:36;;;;;;;17.12;10.58;;;;;;;24.88;74.73;100480.66;1649721;87;21840;-59
2022/08/13 06:09:44;;;;;;;14.90;11.88;;;;;;;25.02;74.70;100488.36;1613407;88;21245;-57
2022/08/13 06:12:51;;;;;;;13.58;11.65;;;;;;;25.15;74.59;100489.03;1649439;86;21363;-58
2022/08/13 06:16:00;;;;;;;16.15;11.95;;;;;;;25.25;74.41;100494.15;1637018;87;21406;-55
2022/08/13 06:19:10;;;;;;;19.17;12.93;;;;;;;25.34;74.34;100491.16;1640158;87;21207;-57
2022/08/13 06:22:15;;;;;;;20.60;11.93;;;;;;;25.40;74.21;100486.44;1647218;86;21215;-56
2022/08/13 06:25:23;;;;;;;16.25;11.90;;;;;;;25.43;74.07;100483.09;1646985;86;21847;-57
2022/08/13 06:28:34;;;;;;;15.53;11.95;;;;;;;25.42;73.91;100482.23;1649903;87;21230;-56
2022/08/13 06:31:42;;;;;;;17.87;11.63;;;;;;;25.44;73.93;100476.36;1674730;85;21220;-57
2022/08/13 06:34:52;;;;;;;17.77;12.33;;;;;;;25.46;73.87;100476.95;1663565;85;21232;-58
2022/08/13 06:37:59;;;;;;;19.55;12.05;;;;;;;25.50;73.86;100467.72;1647422;87;21255;-56
2022/08/13 06:41:06;;;;;;;15.20;11.57;;;;;;;25.56;73.95;100473.63;1643645;86;21291;-60
2022/08/13 06:44:13;;;;;;;14.10;11.80;;;;;;;25.58;73.92;100472.81;1667947;86;21431;-58
2022/08/13 06:47:21;;;;;;;16.57;12.05;;;;;;;25.61;73.92;100472.27;1668236;86;21205;-56
2022/08/13 06:50:28;;;;;;;16.62;11.85;;;;;;;25.70;74.01;100465.59;1668971;85;21224;-56
2022/08/13 06:53:38;;;;;;;14.18;11.15;;;;;;;25.83;74.09;100465.10;1668705;86;21721;-57
2022/08/13 06:56:46;;;;;;;17.27;12.80;;;;;;;26.06;74.19;100467.47;1660749;84;21261;-57
2022/08/13 06:59:57;;;;;;;15.20;12.00;;;;;;;26.24;74.10;100458.55;1656824;86;21347;-57
2022/08/13 07:03:06;;;;;;;17.57;12.33;;;;;;;26.37;74.03;100459.41;1656998;86;21729;-56
2022/08/13 07:06:27;;;;;;;14.15;11.35;;;;;;;26.49;74.00;100462.81;1657156;86;21256;-57
2022/08/13 07:09:34;;;;;;;14.87;11.68;;;;;;;26.60;73.89;100464.52;1658114;86;21217;-58
2022/08/13 07:12:42;;;;;;;16.42;11.55;;;;;;;26.67;73.70;100468.50;1658195;86;22095;-57
2022/08/13 07:15:53;;;;;;;17.92;11.75;;;;;;;26.73;73.63;100462.61;1658146;86;21707;-56
2022/08/13 07:19:00;;;;;;;14.83;11.90;;;;;;;26.81;73.53;100466.81;1658368;86;21220;-56
2022/08/13 07:22:06;;;;;;;14.87;11.63;;;;;;;26.84;73.39;100454.46;1663306;85;21346;-56
2022/08/13 07:25:17;;;;;;;14.60;11.78;;;;;;;26.86;73.25;100456.41;1683234;84;21526;-56
2022/08/13 07:28:27;;;;;;;18.95;12.40;;;;;;;26.92;73.19;100449.69;1672412;85;21405;-56
2022/08/13 07:31:39;;;;;;;15.23;12.23;;;;;;;26.98;73.14;100457.54;1685597;84;21255;-55
2022/08/13 07:34:46;;;;;;;15.95;11.95;;;;;;;27.03;73.09;100451.92;1685928;84;21236;-57
2022/08/13 07:37:58;;;;;;;15.48;11.93;;;;;;;27.07;73.03;100450.22;1662527;85;21219;-55
2022/08/13 07:41:05;;;;;;;15.35;12.90;;;;;;;27.09;72.94;100447.42;1627476;87;21239;-57
2022/08/13 07:44:22;;;;;;;13.78;12.40;;;;;;;27.11;72.84;100442.38;1625549;87;21238;-56
2022/08/13 07:47:30;;;;;;;16.60;11.88;;;;;;;27.15;72.75;100439.26;1632768;88;21248;-57
2022/08/13 07:50:37;;;;;;;14.75;12.43;;;;;;;27.19;72.66;100433.37;1632477;88;21260;-57
2022/08/13 07:53:45;;;;;;;14.15;11.90;;;;;;;27.22;72.54;100426.33;1632871;88;21259;-57
2022/08/13 07:56:56;;;;;;;15.95;12.58;;;;;;;27.24;72.41;100430.52;1633488;88;21219;-57
2022/08/13 08:00:02;;;;;;;16.70;11.28;;;;;;;27.29;72.31;100431.95;1627408;87;21200;-58
2022/08/13 08:03:14;;;;;;;16.48;12.63;;;;;;;27.33;72.19;100430.28;1626617;87;21474;-56
2022/08/13 08:06:30;;;;;;;14.28;11.97;;;;;;;27.39;72.11;100415.07;1626142;88;21259;-58
2022/08/13 08:09:36;;;;;;;15.85;11.33;;;;;;;27.49;72.04;100412.24;1625998;88;21745;-57
2022/08/13 08:12:46;;;;;;;13.15;11.57;;;;;;;27.57;71.86;100406.02;1626406;88;21765;-58
2022/08/13 08:15:55;;;;;;;13.80;11.63;;;;;;;27.63;71.69;100409.64;1627023;88;21304;-57
2022/08/13 08:19:06;;;;;;;14.70;11.78;;;;;;;27.68;71.53;100405.41;1627587;87;21248;-58
2022/08/13 08:22:15;;;;;;;14.58;11.53;;;;;;;27.75;71.43;100406.78;1626046;88;21272;-57
2022/08/13 08:25:28;;;;;;;16.37;12.25;;;;;;;27.85;71.30;100401.11;1626712;87;21394;-57
2022/08/13 08:28:41;;;;;;;14.63;12.05;;;;;;;27.94;71.14;100407.59;1625861;88;21841;-56
2022/08/13 08:31:50;;;;;;;16.07;12.37;;;;;;;28.01;70.97;100399.65;1633743;87;21250;-57
2022/08/13 08:34:58;;;;;;;18.32;12.28;;;;;;;28.10;70.85;100399.34;1609383;87;21598;-57
2022/08/13 08:45:00;;;;;;;25.10;19.70;;;;;;;28.49;70.73;100390.37;1600385;89;21300;-57
2022/08/13 08:48:08;;;;;;;14.60;12.45;;;;;;;28.66;70.62;100379.52;1603204;88;21276;-56
2022/08/13 08:51:16;;;;;;;19.32;11.88;;;;;;;28.79;70.49;100384.48;1602958;89;21418;-57
2022/08/13 08:54:24;;;;;;;19.82;11.22;;;;;;;28.89;70.36;100385.22;1594162;89;21301;-57
2022/08/13 08:57:50;;;;;;;16.82;12.47;;;;;;;29.00;70.22;100367.66;1606417;88;21267;-57
2022/08/13 09:00:56;;;;;;;15.32;11.38;;;;;;;29.08;69.97;100375.50;1631060;86;21233;-57
2022/08/13 09:04:10;;;;;;;14.03;11.57;;;;;;;29.10;69.77;100374.61;1617416;86;21824;-57
2022/08/13 09:07:18;;;;;;;13.72;10.48;;;;;;;29.13;69.64;100376.83;1615813;88;21892;-55
2022/08/13 09:10:33;;;;;;;15.18;11.33;;;;;;;29.16;69.51;100369.22;1613275;89;21263;-57
2022/08/13 09:13:49;;;;;;;14.80;10.70;;;;;;;29.21;69.38;100371.95;1614411;88;21209;-57
2022/08/13 09:16:52;;;;;;;15.70;10.25;;;;;;;29.31;69.45;100366.77;1615619;88;21632;-58
2022/08/13 09:20:02;;;;;;;17.25;10.38;;;;;;;29.42;69.30;100365.52;1614005;89;21264;-57
2022/08/13 09:23:16;;;;;;;16.37;11.28;;;;;;;29.52;69.13;100371.05;1614750;88;21241;-58
2022/08/13 09:26:24;;;;;;;12.63;10.55;;;;;;;29.61;69.00;100363.02;1615511;87;21792;-57
2022/08/13 09:29:31;;;;;;;13.50;11.10;;;;;;;29.77;68.66;100363.70;1614094;89;21248;-58
2022/08/13 09:32:41;;;;;;;12.88;11.15;;;;;;;29.77;68.66;100363.70;1634945;87;21217;-57
2022/08/13 09:35:50;;;;;;;16.42;10.93;;;;;;;29.82;68.28;100363.07;1614559;88;21312;-57
2022/08/13 09:39:00;;;;;;;12.10;10.10;;;;;;;29.91;68.00;100366.89;1600389;89;21224;-58
2022/08/13 09:42:07;;;;;;;14.18;10.75;;;;;;;29.98;67.80;100357.48;1614492;88;21265;-57
2022/08/13 09:45:17;;;;;;;15.03;10.65;;;;;;;30.06;67.58;100360.19;1612633;88;21265;-56
2022/08/13 09:48:34;;;;;;;20.37;11.18;;;;;;;30.14;67.50;100358.09;1613748;88;21643;-57
2022/08/13 09:51:44;;;;;;;17.77;11.12;;;;;;;30.24;67.27;100359.41;1614752;89;21529;-58
2022/08/13 09:54:57;;;;;;;12.28;10.38;;;;;;;30.32;67.33;100355.29;1614949;88;21264;-56
2022/08/13 09:58:08;;;;;;;;;;;;;;;30.45;67.14;100363.00;1616923;88;21229;-56
2022/08/13 10:01:18;;;;;;;13.40;10.93;;;;;;;30.57;66.91;100359.11;1628039;86;20596;-56
2022/08/13 10:04:32;;;;;;;13.25;10.65;;;;;;;30.68;66.74;100349.05;1647252;86;21330;-57
2022/08/13 10:07:40;;;;;;;11.55;10.35;;;;;;;30.75;66.65;100340.44;1646232;87;21259;-58
2022/08/13 10:10:49;;;;;;;16.48;10.78;;;;;;;30.78;66.24;100348.33;1646819;87;21791;-57
2022/08/13 10:13:58;;;;;;;14.10;10.03;;;;;;;30.86;66.07;100347.62;1646824;87;21361;-58
2022/08/13 10:17:05;;;;;;;14.20;11.03;;;;;;;30.91;65.81;100345.27;1646611;86;21215;-57
2022/08/13 10:20:18;;;;;;;14.07;10.38;;;;;;;30.92;65.52;100349.80;1632537;86;21282;-58
2022/08/13 10:23:25;;;;;;;13.90;10.78;;;;;;;30.94;65.35;100339.84;1647112;86;21204;-57
2022/08/13 10:26:40;;;;;;;14.87;10.55;;;;;;;30.98;65.12;100339.49;1647001;86;21330;-57
2022/08/13 10:29:48;;;;;;;15.15;11.43;;;;;;;31.00;64.83;100338.58;1632533;85;21665;-57
2022/08/13 10:33:04;;;;;;;14.98;10.30;;;;;;;31.03;64.73;100332.33;1640780;87;21248;-57
2022/08/13 10:36:14;;;;;;;11.90;10.13;;;;;;;31.10;64.58;100328.50;1640656;85;21259;-57
2022/08/13 10:39:21;;;;;;;15.03;10.32;;;;;;;31.18;64.29;100336.27;1639754;86;21180;-57
2022/08/13 10:42:31;;;;;;;15.60;10.03;;;;;;;31.26;63.97;100337.52;1639433;87;21374;-57
2022/08/13 10:45:42;;;;;;;18.20;10.58;;;;;;;31.34;63.77;100336.27;1639844;86;21268;-57
2022/08/13 10:48:55;;;;;;;17.65;9.70;;;;;;;31.45;63.59;100334.05;1652471;86;21239;-56
2022/08/13 10:51:57;;;;;;;25.67;11.03;;;;;;;31.60;63.42;100339.41;1653822;86;21876;-57
2022/08/13 10:55:12;;;;;;;18.23;9.33;;;;;;;31.75;63.18;100331.42;1668064;85;21640;-56
2022/08/13 10:58:22;;;;;;;34.65;10.38;;;;;;;31.86;62.81;100335.73;1635684;86;21211;-56
2022/08/13 11:01:32;;;;;;;28.85;10.70;;;;;;;32.00;62.41;100341.35;1637419;85;21216;-57
2022/08/13 11:04:39;;;;;;;22.73;10.20;;;;;;;32.10;62.05;100330.37;1655821;85;21278;-56
2022/08/13 11:07:47;;;;;;;27.73;10.00;;;;;;;32.15;61.61;100335.34;1656371;86;21251;-57
2022/08/13 11:10:56;;;;;;;26.12;10.60;;;;;;;32.19;61.26;100343.45;1653026;85;21290;-57
2022/08/13 11:14:07;;;;;;;28.83;11.05;;;;;;;32.29;61.10;100333.30;1654916;86;21210;-57
2022/08/13 11:17:17;;;;;;;27.00;10.70;;;;;;;32.45;60.96;100330.95;1652422;86;21755;-58
2022/08/13 11:20:25;;;;;;;30.32;10.45;;;;;;;32.62;60.75;100324.02;1643696;86;21291;-58
2022/08/13 11:23:43;;;;;;;23.35;9.80;;;;;;;32.76;60.37;100322.77;1619804;88;21242;-57
2022/08/13 11:26:52;;;;;;;24.70;10.70;;;;;;;32.88;59.97;100311.71;1640810;87;21220;-58
2022/08/13 11:30:01;;;;;;;29.57;10.08;;;;;;;32.96;59.47;100312.34;1644974;84;21355;-57
2022/08/13 11:33:09;;;;;;;29.25;10.20;;;;;;;32.99;59.14;100307.43;1647934;86;21279;-57
2022/08/13 11:36:19;;;;;;;24.20;8.93;;;;;;;33.04;58.92;100306.45;1652462;85;21254;-57
2022/08/13 11:39:26;;;;;;;35.43;10.45;;;;;;;33.13;58.69;100300.22;1645476;86;21212;-58
2022/08/13 11:42:40;;;;;;;31.17;9.30;;;;;;;33.17;58.32;100302.08;1647591;87;21554;-56
2022/08/13 11:45:49;;;;;;;24.80;8.73;;;;;;;33.22;57.94;100292.00;1656768;85;21804;-57
2022/08/13 11:48:54;;;;;;;29.45;10.40;;;;;;;33.24;57.55;100303.88;1618343;87;21228;-58
